Time;durP1;ratioP1;P1;durP2;ratioP2;P2;SDS_P1;SDS_P2;PMS_P1;PMS_P2;Temp;Humidity;BMP_temperature;BMP_pressure;BME280_temperature;BME280_humidity;BME280_pressure;Samples;Min_cycle;Max_cycle;Signal;HPM_P1;HPM_P2
2022/08/17 00:00:25;;;;;;;31.17;27.65;;;20.90;99.90;;;;;;5073843;28;20427;-58
2022/08/17 00:02:55;;;;;;;;;;;20.80;99.90;;;;;;5074258;28;20086;-56
2022/08/17 00:05:20;;;;;;;32.42;28.98;;;20.80;99.90;;;;;;5073748;28;19916;-56
2022/08/17 00:07:46;;;;;;;33.35;30.05;;;20.80;99.90;;;;;;5073782;28;20037;-57
2022/08/17 00:10:12;;;;;;;32.83;29.52;;;20.70;99.90;;;;;;5073748;28;20509;-57
2022/08/17 00:12:42;;;;;;;31.77;28.45;;;20.70;99.90;;;;;;5073654;28;20036;-58
2022/08/17 00:15:08;;;;;;;32.95;28.60;;;20.60;99.90;;;;;;5073686;28;20097;-57
2022/08/17 00:17:34;;;;;;;35.85;32.22;;;20.60;99.90;;;;;;5073723;28;20044;-56
2022/08/17 00:20:00;;;;;;;35.63;30.40;;;20.60;99.90;;;;;;5073607;28;20363;-56
2022/08/17 00:22:26;;;;;;;31.55;28.50;;;20.60;99.90;;;;;;5073566;28;20082;-56
2022/08/17 00:24:52;;;;;;;34.50;30.85;;;20.60;99.90;;;;;;5073516;28;20048;-56
2022/08/17 00:27:18;;;;;;;31.60;28.40;;;20.70;99.90;;;;;;5073312;28;20044;-56
2022/08/17 00:29:44;;;;;;;30.13;27.23;;;20.60;99.90;;;;;;5073326;28;20386;-57
2022/08/17 00:32:11;;;;;;;32.45;29.10;;;20.60;99.90;;;;;;5073528;28;20052;-57
2022/08/17 00:34:38;;;;;;;34.60;30.98;;;20.60;99.90;;;;;;5073430;28;20036;-57
2022/08/17 00:37:03;;;;;;;33.45;29.92;;;20.60;99.90;;;;;;5073575;28;20051;-57
2022/08/17 00:39:29;;;;;;;34.70;31.17;;;20.50;99.90;;;;;;5076987;28;20127;-56
2022/08/17 00:41:55;;;;;;;32.75;29.20;;;20.50;99.90;;;;;;5077406;28;20398;-58
2022/08/17 00:44:21;;;;;;;33.83;30.27;;;20.40;99.90;;;;;;5077228;28;20047;-56
2022/08/17 00:46:47;;;;;;;37.17;33.28;;;20.40;99.90;;;;;;5076205;28;20106;-56
2022/08/17 00:49:14;;;;;;;40.90;35.22;;;20.40;99.90;;;;;;5075599;28;20080;-56
2022/08/17 00:51:50;;;;;;;38.17;31.90;;;20.30;99.90;;;;;;5077249;28;20044;-56
2022/08/17 00:54:32;;;;;;;34.47;30.63;;;20.30;99.90;;;;;;5077207;28;20040;-58
2022/08/17 00:57:07;;;;;;;34.90;30.58;;;20.40;99.90;;;;;;5077069;28;20079;-57
2022/08/17 00:59:41;;;;;;;31.38;28.10;;;20.50;99.90;;;;;;5076870;28;20098;-58
2022/08/17 01:02:09;;;;;;;32.83;28.88;;;20.40;99.90;;;;;;5077020;28;20048;-56
2022/08/17 01:04:36;;;;;;;33.40;29.97;;;20.40;99.90;;;;;;5075729;28;20076;-56
2022/08/17 01:07:03;;;;;;;35.13;29.58;;;20.50;99.90;;;;;;5076969;28;20327;-57
2022/08/17 01:09:30;;;;;;;29.75;26.52;;;20.40;99.90;;;;;;5076555;28;20041;-56
2022/08/17 01:11:56;;;;;;;29.92;26.63;;;20.40;99.90;;;;;;5076690;28;20475;-57
2022/08/17 01:14:23;;;;;;;32.05;28.70;;;20.40;99.90;;;;;;5076672;28;20044;-57
2022/08/17 01:16:52;;;;;;;35.33;28.35;;;20.50;99.90;;;;;;5076639;28;20479;-56
2022/08/17 01:19:25;;;;;;;32.30;28.88;;;20.40;99.90;;;;;;5076738;28;20044;-56
2022/08/17 01:22:05;;;;;;;34.40;26.85;;;20.40;99.90;;;;;;5076608;28;20051;-57
2022/08/17 01:24:33;;;;;;;37.08;30.65;;;20.40;99.90;;;;;;5076637;28;20045;-57
2022/08/17 01:26:58;;;;;;;33.63;29.83;;;20.40;99.90;;;;;;5076557;28;20032;-57
2022/08/17 01:29:25;;;;;;;36.40;29.13;;;20.40;99.90;;;;;;5075056;28;20600;-57
2022/08/17 01:31:58;;;;;;;32.45;28.92;;;20.30;99.90;;;;;;5076262;28;20475;-58
2022/08/17 01:34:25;;;;;;;31.85;27.80;;;20.20;99.90;;;;;;5076433;28;20178;-57
2022/08/17 01:36:52;;;;;;;32.42;27.20;;;20.30;99.90;;;;;;5076632;28;20051;-57
2022/08/17 01:39:23;;;;;;;34.80;30.50;;;20.10;99.90;;;;;;5076339;28;20037;-58
2022/08/17 01:41:52;;;;;;;34.05;29.27;;;20.20;99.90;;;;;;5076113;28;20506;-56
2022/08/17 01:44:19;;;;;;;35.47;29.85;;;20.20;99.90;;;;;;5076242;28;20044;-57
2022/08/17 01:46:45;;;;;;;32.95;29.35;;;20.20;99.90;;;;;;5076564;28;20044;-56
2022/08/17 01:49:11;;;;;;;35.80;28.80;;;20.10;99.90;;;;;;5075160;28;20049;-57
2022/08/17 01:51:38;;;;;;;29.75;26.65;;;20.10;99.90;;;;;;5075981;28;20036;-57
2022/08/17 01:54:09;;;;;;;33.53;28.65;;;20.00;99.90;;;;;;5075969;28;20116;-57
2022/08/17 01:56:40;;;;;;;32.65;29.10;;;20.00;99.90;;;;;;5075947;28;20043;-58
2022/08/17 01:59:05;;;;;;;29.92;26.60;;;20.00;99.90;;;;;;5076118;28;20387;-57
2022/08/17 02:01:33;;;;;;;31.08;26.98;;;20.10;99.90;;;;;;5075964;28;20040;-57
2022/08/17 02:03:59;;;;;;;33.65;28.15;;;20.00;99.90;;;;;;5075779;28;20410;-57
2022/08/17 02:06:26;;;;;;;33.10;28.48;;;20.10;99.90;;;;;;5075753;28;20036;-56
2022/08/17 02:08:52;;;;;;;26.98;24.20;;;20.00;99.90;;;;;;5074394;28;20076;-56
2022/08/17 02:11:20;;;;;;;28.33;25.02;;;20.10;99.90;;;;;;5075490;28;20071;-57
2022/08/17 02:13:48;;;;;;;29.88;26.00;;;20.10;99.90;;;;;;5075772;28;20036;-57
2022/08/17 02:16:14;;;;;;;26.08;23.23;;;20.10;99.90;;;;;;5075666;28;20041;-56
2022/08/17 02:18:39;;;;;;;30.45;27.15;;;20.10;99.90;;;;;;5075693;28;20090;-57
2022/08/17 02:21:06;;;;;;;31.50;27.10;;;20.10;99.90;;;;;;5074510;28;20040;-58
2022/08/17 02:23:36;;;;;;;31.20;27.83;;;20.00;99.90;;;;;;5075162;28;20097;-56
2022/08/17 02:26:02;;;;;;;30.15;26.23;;;19.90;99.90;;;;;;5075452;28;20040;-57
2022/08/17 02:28:28;;;;;;;26.65;23.55;;;19.90;99.90;;;;;;5075112;28;20501;-57
2022/08/17 02:30:55;;;;;;;33.65;26.90;;;19.90;99.90;;;;;;5075355;28;20032;-57
2022/08/17 02:33:21;;;;;;;27.33;24.45;;;20.00;99.90;;;;;;5075304;28;20036;-57
2022/08/17 02:35:47;;;;;;;34.80;29.40;;;19.90;99.90;;;;;;5075334;28;20129;-56
2022/08/17 02:38:13;;;;;;;31.25;27.00;;;19.80;99.90;;;;;;5074892;28;20037;-57
2022/08/17 02:40:39;;;;;;;29.20;25.42;;;19.90;99.90;;;;;;5074874;28;20040;-57
2022/08/17 02:43:09;;;;;;;33.38;29.55;;;19.70;99.90;;;;;;5075713;28;20097;-56
2022/08/17 02:45:35;;;;;;;30.30;25.10;;;19.80;99.90;;;;;;5075055;28;20041;-57
2022/08/17 02:48:01;;;;;;;31.40;27.33;;;19.80;99.90;;;;;;5074949;28;20037;-56
2022/08/17 02:50:27;;;;;;;34.97;28.35;;;19.80;99.90;;;;;;5074837;28;20446;-57
2022/08/17 02:52:53;;;;;;;30.95;27.65;;;19.80;99.90;;;;;;5074586;28;20044;-56
2022/08/17 02:55:25;;;;;;;31.50;26.67;;;19.80;99.90;;;;;;5074799;28;20037;-57
2022/08/17 02:57:51;;;;;;;30.73;27.35;;;19.80;99.90;;;;;;5074878;28;20036;-57
2022/08/17 03:00:22;;;;;;;34.90;28.98;;;19.70;99.90;;;;;;5074798;28;20040;-56
2022/08/17 03:02:48;;;;;;;30.63;27.08;;;19.70;99.90;;;;;;5074614;28;20494;-57
2022/08/17 03:05:18;;;;;;;33.97;29.98;;;19.80;99.90;;;;;;5074333;28;20052;-57
2022/08/17 03:07:44;;;;;;;32.20;27.88;;;19.70;99.90;;;;;;5074651;28;20240;-56
2022/08/17 03:10:10;;;;;;;45.97;33.47;;;19.80;99.90;;;;;;5074669;28;20062;-56
2022/08/17 03:12:39;;;;;;;44.38;32.25;;;19.80;99.90;;;;;;5074566;28;20071;-57
2022/08/17 03:15:09;;;;;;;46.92;33.83;;;19.80;99.90;;;;;;5074397;28;20119;-56
2022/08/17 03:17:35;;;;;;;43.38;32.47;;;19.80;99.90;;;;;;5074406;28;20036;-57
2022/08/17 03:20:00;;;;;;;42.80;33.08;;;19.70;99.90;;;;;;5074382;28;20052;-57
2022/08/17 03:22:27;;;;;;;44.60;31.02;;;19.70;99.90;;;;;;5074419;28;20036;-56
2022/08/17 03:24:54;;;;;;;36.55;30.70;;;19.70;99.90;;;;;;5074231;28;20045;-57
2022/08/17 03:27:20;;;;;;;39.03;32.30;;;19.70;99.90;;;;;;5074317;28;20041;-57
2022/08/17 03:29:46;;;;;;;33.35;28.80;;;19.60;99.90;;;;;;5073933;28;20051;-56
2022/08/17 03:32:13;;;;;;;36.90;30.55;;;19.60;99.90;;;;;;5074069;28;20040;-57
2022/08/17 03:34:39;;;;;;;35.22;29.15;;;19.80;99.90;;;;;;5074177;28;20503;-57
2022/08/17 03:37:05;;;;;;;34.13;28.80;;;19.70;99.90;;;;;;5074069;28;20368;-57
2022/08/17 03:39:31;;;;;;;42.97;33.28;;;19.70;99.90;;;;;;5074083;28;20048;-57
2022/08/17 03:42:12;;;;;;;51.58;34.13;;;19.80;99.90;;;;;;5074063;28;20470;-58
2022/08/17 03:44:38;;;;;;;40.47;31.23;;;19.70;99.90;;;;;;5074049;28;20033;-58
2022/08/17 03:58:01;;;;;;;46.22;33.28;;;19.50;99.90;;;;;;5073848;28;20041;-57
2022/08/17 04:00:27;;;;;;;39.22;31.10;;;19.50;99.90;;;;;;5073823;28;20039;-57
2022/08/17 04:02:53;;;;;;;34.65;29.05;;;19.50;99.90;;;;;;5073867;28;20064;-58
2022/08/17 04:05:20;;;;;;;32.78;28.38;;;19.40;99.90;;;;;;5073804;28;20071;-57
2022/08/17 04:07:46;;;;;;;39.30;31.60;;;19.40;99.90;;;;;;5073503;28;20067;-57
2022/08/17 04:10:12;;;;;;;32.85;27.70;;;19.40;99.90;;;;;;5073822;28;20127;-57
2022/08/17 04:12:51;;;;;;;35.95;30.38;;;19.40;99.90;;;;;;5073470;28;20048;-57
2022/08/17 04:15:17;;;;;;;34.83;29.33;;;19.40;99.90;;;;;;5073747;28;20060;-57
2022/08/17 04:17:43;;;;;;;34.25;29.17;;;19.40;99.90;;;;;;5073854;28;20520;-57
2022/08/17 04:20:11;;;;;;;36.50;29.75;;;19.40;99.90;;;;;;5073618;28;20128;-57
2022/08/17 04:22:37;;;;;;;36.63;30.95;;;19.50;99.90;;;;;;5073939;28;20040;-57
2022/08/17 04:25:07;;;;;;;34.90;29.42;;;19.40;99.90;;;;;;5071737;28;20449;-57
2022/08/17 04:27:33;;;;;;;35.10;28.17;;;19.50;99.90;;;;;;5073571;28;20086;-57
2022/08/17 04:29:59;;;;;;;41.15;29.50;;;19.40;99.90;;;;;;5073520;28;20044;-57
2022/08/17 04:32:25;;;;;;;33.75;29.50;;;19.50;99.90;;;;;;5073479;28;20041;-57
2022/08/17 04:34:51;;;;;;;40.90;29.88;;;19.60;99.90;;;;;;5073169;28;20120;-56
2022/08/17 04:37:17;;;;;;;34.22;29.05;;;19.50;99.90;;;;;;5073541;28;20076;-58
2022/08/17 04:42:05;;;;;;;37.60;28.70;;;19.50;99.90;;;;;;5073467;28;20444;-57
2022/08/17 04:42:28;;;;;;;32.58;28.33;;;19.50;99.90;;;;;;5072299;28;20158;-57
2022/08/17 04:44:54;;;;;;;37.05;29.20;;;19.60;99.90;;;;;;5073330;28;20075;-57
2022/08/17 04:47:19;;;;;;;35.55;27.73;;;19.50;99.90;;;;;;5073386;28;20044;-57
2022/08/17 04:49:45;;;;;;;35.40;27.10;;;19.60;99.90;;;;;;5072847;28;20071;-58
2022/08/17 04:52:10;;;;;;;34.05;27.10;;;19.60;99.90;;;;;;5072519;28;20040;-57
2022/08/17 04:54:36;;;;;;;37.58;29.63;;;19.50;99.90;;;;;;5073336;28;20037;-57
2022/08/17 04:57:02;;;;;;;40.70;32.22;;;19.40;99.90;;;;;;5073237;28;20475;-57
2022/08/17 04:59:27;;;;;;;38.42;32.08;;;19.40;99.90;;;;;;5073233;28;20125;-57
2022/08/17 05:01:53;;;;;;;40.30;31.50;;;19.40;99.90;;;;;;5073072;28;20166;-57
2022/08/17 05:04:24;;;;;;;50.47;34.67;;;19.50;99.90;;;;;;5073260;28;20119;-57
2022/08/17 05:06:51;;;;;;;39.47;32.97;;;19.40;99.90;;;;;;5073214;28;20036;-57
2022/08/17 05:09:17;;;;;;;38.13;28.90;;;19.50;99.90;;;;;;5073077;28;20083;-58
2022/08/17 05:11:44;;;;;;;43.72;32.67;;;19.60;99.90;;;;;;5073069;28;20558;-57
2022/08/17 05:14:10;;;;;;;37.85;30.02;;;19.40;99.90;;;;;;5073092;28;20036;-57
2022/08/17 05:16:35;;;;;;;38.03;31.83;;;19.70;99.90;;;;;;5072848;28;20036;-57
2022/08/17 05:19:01;;;;;;;35.10;29.40;;;19.60;99.90;;;;;;5073177;28;20078;-57
2022/08/17 05:21:28;;;;;;;32.30;28.50;;;19.50;99.90;;;;;;5073354;28;20090;-58
2022/08/17 05:23:57;;;;;;;32.50;28.92;;;19.70;99.90;;;;;;5073304;28;20037;-58
2022/08/17 05:26:24;;;;;;;;;;;19.80;99.90;;;;;;5076505;28;20040;-58
2022/08/17 05:28:50;;;;;;;32.75;29.27;;;19.70;99.90;;;;;;5076493;28;19939;-57
2022/08/17 05:31:16;;;;;;;38.90;31.98;;;19.80;99.90;;;;;;5076466;28;20472;-57
2022/08/17 05:33:43;;;;;;;44.38;32.38;;;19.80;99.90;;;;;;5076217;28;20537;-59
2022/08/17 05:36:11;;;;;;;39.28;32.65;;;19.80;99.90;;;;;;5076385;28;20119;-57
2022/08/17 05:38:37;;;;;;;36.80;31.17;;;19.90;99.90;;;;;;5076427;28;20383;-58
2022/08/17 05:41:05;;;;;;;40.30;30.20;;;19.90;99.90;;;;;;5076165;28;20051;-58
2022/08/17 05:43:41;;;;;;;35.83;30.42;;;19.80;99.90;;;;;;5075980;28;20040;-57
2022/08/17 05:46:17;;;;;;;39.60;33.42;;;19.90;99.90;;;;;;5076266;28;20169;-56
2022/08/17 05:48:46;;;;;;;45.90;32.67;;;19.90;99.90;;;;;;5075745;28;20487;-57
2022/08/17 05:51:15;;;;;;;;;;;19.90;99.90;;;;;;5076725;28;20136;-57
2022/08/17 05:53:50;;;;;;;42.03;32.45;;;19.70;99.90;;;;;;5076105;28;20337;-57
2022/08/17 05:56:40;;;;;;;44.22;33.13;;;19.90;99.90;;;;;;5075077;28;20072;-57
2022/08/17 05:59:18;;;;;;;;;;;19.90;99.90;;;;;;5076289;28;20037;-58
2022/08/17 06:02:14;;;;;;;42.85;33.10;;;19.80;99.90;;;;;;5076053;28;19977;-57
2022/08/17 06:05:10;;;;;;;36.45;32.33;;;19.80;99.90;;;;;;5075950;28;20084;-58
2022/08/17 06:07:53;;;;;;;36.45;30.48;;;19.80;99.90;;;;;;5075685;28;20047;-57
2022/08/17 06:10:31;;;;;;;44.42;33.03;;;20.00;99.90;;;;;;5075646;28;20040;-58
2022/08/17 06:13:07;;;;;;;41.20;32.83;;;19.80;99.90;;;;;;5075712;28;20050;-58
2022/08/17 06:16:08;;;;;;;41.47;33.42;;;20.00;99.90;;;;;;5075561;28;20479;-58
2022/08/17 06:19:11;;;;;;;42.40;33.67;;;20.00;99.90;;;;;;5075579;28;20116;-58
2022/08/17 06:21:41;;;;;;;54.17;36.25;;;19.90;99.90;;;;;;5075382;28;20494;-58
2022/08/17 06:24:33;;;;;;;47.03;35.80;;;19.80;99.90;;;;;;5075450;28;20040;-57
2022/08/17 06:27:24;;;;;;;46.75;38.25;;;20.00;99.90;;;;;;5075462;28;20037;-57
2022/08/17 06:30:11;;;;;;;57.25;41.13;;;19.90;99.90;;;;;;5075380;28;20072;-56
2022/08/17 06:32:39;;;;;;;38.58;30.85;;;19.80;99.90;;;;;;5075396;28;20045;-56
2022/08/17 06:35:11;;;;;;;55.28;39.63;;;19.90;99.90;;;;;;5074985;28;20093;-57
2022/08/17 06:38:02;;;;;;;54.42;41.30;;;19.90;99.90;;;;;;5075104;28;20037;-57
2022/08/17 06:40:47;;;;;;;54.53;39.28;;;19.90;99.90;;;;;;5074904;28;20585;-57
2022/08/17 06:43:33;;;;;;;52.20;39.70;;;20.10;99.90;;;;;;5075159;28;20036;-57
2022/08/17 06:46:06;;;;;;;54.67;42.38;;;20.00;99.90;;;;;;5074943;28;20047;-56
2022/08/17 06:48:39;;;;;;;56.63;41.45;;;19.90;99.90;;;;;;5074902;28;20060;-56
2022/08/17 06:51:25;;;;;;;62.03;41.15;;;19.90;99.90;;;;;;5074758;28;20453;-57
2022/08/17 06:53:59;;;;;;;49.03;38.47;;;20.10;99.90;;;;;;5074955;28;20041;-58
2022/08/17 06:56:43;;;;;;;61.33;44.05;;;20.00;99.90;;;;;;5075351;28;20036;-58
2022/08/17 06:59:17;;;;;;;60.83;43.38;;;20.20;99.90;;;;;;5074885;28;20131;-56
2022/08/17 07:01:45;;;;;;;55.55;43.42;;;20.20;99.90;;;;;;5074887;28;20052;-57
2022/08/17 07:04:18;;;;;;;74.38;45.25;;;20.10;99.90;;;;;;5073623;28;20105;-57
2022/08/17 07:06:51;;;;;;;50.28;39.80;;;20.10;99.90;;;;;;5074661;28;20047;-57
2022/08/17 07:09:24;;;;;;;54.72;44.30;;;20.30;99.90;;;;;;5074549;28;20043;-58
2022/08/17 07:12:01;;;;;;;57.35;45.45;;;20.40;99.90;;;;;;5074608;28;20119;-56
2022/08/17 07:14:54;;;;;;;66.38;49.05;;;20.20;99.90;;;;;;5074532;28;20090;-57
2022/08/17 07:17:22;;;;;;;66.75;47.92;;;20.50;99.90;;;;;;5074483;28;20379;-56
2022/08/17 07:19:52;;;;;;;44.10;35.13;;;20.20;99.90;;;;;;5074403;28;20045;-57
2022/08/17 07:22:29;;;;;;;65.32;47.92;;;20.50;99.90;;;;;;5074457;28;20441;-57
2022/08/17 07:24:58;;;;;;;64.93;48.60;;;20.40;99.90;;;;;;5074482;28;20506;-58
2022/08/17 07:27:30;;;;;;;49.80;39.08;;;20.40;99.90;;;;;;5074711;28;20490;-56
2022/08/17 07:30:07;;;;;;;60.15;45.22;;;20.60;99.90;;;;;;5074087;28;20040;-58
2022/08/17 07:32:35;;;;;;;63.58;47.15;;;20.80;99.90;;;;;;5073891;28;20086;-57
2022/08/17 07:35:09;;;;;;;60.92;42.45;;;20.70;99.90;;;;;;5074203;28;20044;-57
2022/08/17 07:37:37;;;;;;;50.63;39.75;;;20.70;99.90;;;;;;5074133;28;20052;-57
2022/08/17 07:40:16;;;;;;;58.17;45.90;;;20.60;99.90;;;;;;5074101;28;20103;-57
2022/08/17 07:43:14;;;;;;;63.25;45.20;;;20.70;99.90;;;;;;5073891;28;20511;-59
2022/08/17 07:48:48;;;;;;;58.53;45.17;;;20.60;99.90;;;;;;5073048;28;20048;-56
2022/08/17 07:51:16;;;;;;;65.07;50.00;;;20.60;99.90;;;;;;5072939;28;20090;-57
2022/08/17 07:53:44;;;;;;;75.85;50.92;;;20.80;99.90;;;;;;5073989;28;20039;-57
2022/08/17 07:56:09;;;;;;;49.65;36.10;;;20.90;99.90;;;;;;5073927;28;20036;-57
2022/08/17 07:58:35;;;;;;;55.60;40.78;;;20.70;99.90;;;;;;5073911;28;20387;-57
2022/08/17 08:01:04;;;;;;;66.15;50.60;;;20.80;99.90;;;;;;5073861;28;20560;-57
2022/08/17 08:03:32;;;;;;;77.60;53.08;;;21.10;99.90;;;;;;5073777;28;20045;-56
2022/08/17 08:06:00;;;;;;;59.67;47.72;;;21.00;99.90;;;;;;5073885;28;20071;-56
2022/08/17 08:08:42;;;;;;;70.32;52.70;;;21.10;99.90;;;;;;5073791;28;20037;-56
2022/08/17 08:11:27;;;;;;;68.30;48.80;;;21.10;99.90;;;;;;5073690;28;20060;-57
2022/08/17 08:13:52;;;;;;;60.60;48.53;;;21.30;99.90;;;;;;5073786;28;20123;-58
2022/08/17 08:16:28;;;;;;;66.35;50.83;;;21.30;99.90;;;;;;5073667;28;20116;-57
2022/08/17 08:18:59;;;;;;;61.95;48.90;;;21.40;99.90;;;;;;5073693;28;20439;-57
2022/08/17 08:21:50;;;;;;;67.90;50.05;;;21.50;99.90;;;;;;5073664;28;20051;-57
2022/08/17 08:24:42;;;;;;;61.17;46.88;;;21.60;99.90;;;;;;5073905;28;20032;-57
2022/08/17 08:27:11;;;;;;;53.72;45.25;;;21.50;99.90;;;;;;5073631;28;20032;-57
2022/08/17 08:30:04;;;;;;;61.42;50.58;;;21.60;99.90;;;;;;5072644;28;20048;-58
2022/08/17 08:33:07;;;;;;;48.80;40.97;;;21.70;99.90;;;;;;5073170;28;20037;-58
2022/08/17 08:35:46;;;;;;;47.72;40.30;;;21.70;99.90;;;;;;5072543;28;20036;-58
2022/08/17 08:38:22;;;;;;;54.53;45.80;;;21.90;99.90;;;;;;5073492;28;20033;-58
2022/08/17 08:41:15;;;;;;;57.03;47.60;;;21.90;99.90;;;;;;5073422;28;20101;-58
2022/08/17 08:44:06;;;;;;;48.42;42.50;;;21.80;99.90;;;;;;5073685;28;20059;-58
2022/08/17 08:46:39;;;;;;;53.55;45.97;;;21.90;99.90;;;;;;5073398;28;20041;-58
2022/08/17 08:49:26;;;;;;;56.47;47.25;;;21.90;99.90;;;;;;5072986;28;20056;-58
2022/08/17 08:52:01;;;;;;;42.00;37.63;;;21.90;99.90;;;;;;5073401;28;20057;-58
2022/08/17 08:54:52;;;;;;;49.40;41.30;;;22.00;99.90;;;;;;5072273;28;20506;-58
2022/08/17 08:57:36;;;;;;;48.83;41.00;;;21.90;99.90;;;;;;5073156;28;20040;-58
2022/08/17 09:00:11;;;;;;;46.47;39.03;;;22.00;99.90;;;;;;5076109;28;20115;-58
2022/08/17 09:02:39;;;;;;;46.25;41.33;;;21.90;99.90;;;;;;5075973;28;20087;-58
2022/08/17 09:05:24;;;;;;;37.80;33.85;;;22.00;99.90;;;;;;5076872;28;20048;-58
2022/08/17 09:08:36;;;;;;;43.70;39.17;;;22.10;99.90;;;;;;5076793;28;20056;-58
2022/08/17 09:11:21;;;;;;;;;;;22.10;99.90;;;;;;5035100;28;20068;-58
2022/08/17 09:14:05;;;;;;;42.38;37.63;;;22.30;99.90;;;;;;5034888;28;20391;-58
2022/08/17 09:16:50;;;;;;;40.97;36.63;;;22.20;99.90;;;;;;5017936;28;20583;-58
2022/08/17 09:19:17;;;;;;;45.78;40.92;;;22.20;99.90;;;;;;5034589;28;20096;-59
2022/08/17 09:22:24;;;;;;;38.90;33.80;;;22.20;99.90;;;;;;5034602;28;20172;-58
2022/08/17 09:24:55;;;;;;;39.78;34.47;;;22.20;99.90;;;;;;4959481;28;20485;-58
2022/08/17 09:27:29;;;;;;;40.78;36.45;;;22.40;99.90;;;;;;4975630;28;20475;-58
2022/08/17 09:30:07;;;;;;;42.88;35.00;;;22.40;99.90;;;;;;4975567;28;20051;-57
2022/08/17 09:32:38;;;;;;;34.78;31.13;;;22.40;99.90;;;;;;4975629;28;20127;-57
2022/08/17 09:35:31;;;;;;;35.15;31.63;;;22.50;99.90;;;;;;4976005;28;20113;-58
2022/08/17 09:38:14;;;;;;;36.75;33.03;;;22.70;99.90;;;;;;4975611;28;20141;-56
2022/08/17 09:40:46;;;;;;;33.55;30.05;;;23.00;99.90;;;;;;4975440;28;20138;-56
2022/08/17 09:43:48;;;;;;;32.58;29.10;;;23.60;99.90;;;;;;4975245;28;20088;-56
2022/08/17 09:46:30;;;;;;;35.83;31.35;;;24.30;99.90;;;;;;4975432;28;20077;-56
2022/08/17 09:49:26;;;;;;;29.40;26.38;;;24.30;99.90;;;;;;4991856;28;20140;-56
2022/08/17 09:52:01;;;;;;;33.60;30.17;;;24.20;99.90;;;;;;4993679;28;20089;-57
2022/08/17 09:54:32;;;;;;;32.67;26.25;;;24.20;99.90;;;;;;4994612;28;20046;-57
2022/08/17 09:57:26;;;;;;;32.95;29.75;;;24.00;99.90;;;;;;4994633;28;20042;-56
2022/08/17 10:00:26;;;;;;;33.40;29.88;;;24.00;99.90;;;;;;4995926;28;20141;-57
2022/08/17 10:03:08;;;;;;;35.92;32.10;;;24.20;99.90;;;;;;5076047;28;20041;-57
2022/08/17 10:05:36;;;;;;;32.85;29.00;;;24.20;99.90;;;;;;5076539;28;20041;-58
2022/08/17 10:08:08;;;;;;;;;;;24.10;99.90;;;;;;5076306;28;20461;-57
2022/08/17 10:11:04;;;;;;;35.78;32.17;;;24.00;99.90;;;;;;5074716;28;19916;-57
2022/08/17 10:13:48;;;;;;;34.95;31.30;;;23.70;99.90;;;;;;5075612;28;20055;-57
2022/08/17 10:16:24;;;;;;;33.22;29.73;;;23.60;99.90;;;;;;5075752;28;20043;-56
2022/08/17 10:19:05;;;;;;;35.60;32.03;;;23.50;99.90;;;;;;5075739;28;20101;-56
2022/08/17 10:27:47;;;;;;;29.75;26.73;;;23.30;99.90;;;;;;5075568;28;20040;-57
2022/08/17 10:30:16;;;;;;;30.13;27.10;;;23.40;99.90;;;;;;5074980;28;20036;-57
2022/08/17 10:32:58;;;;;;;32.03;28.77;;;23.50;99.90;;;;;;5075371;28;20072;-56
2022/08/17 10:35:47;;;;;;;31.30;28.20;;;23.50;99.90;;;;;;5075028;28;20568;-56
2022/08/17 10:38:31;;;;;;;34.30;28.40;;;23.70;99.90;;;;;;5075308;28;20041;-56
2022/08/17 10:41:31;;;;;;;30.77;27.70;;;23.80;99.90;;;;;;5075254;28;20073;-57
2022/08/17 10:44:07;;;;;;;32.95;28.08;;;23.90;99.90;;;;;;5075205;28;20049;-56
2022/08/17 10:47:01;;;;;;;31.33;26.27;;;23.90;99.90;;;;;;5075134;28;20045;-57
2022/08/17 10:49:32;;;;;;;25.02;22.63;;;24.10;99.90;;;;;;5074557;28;20523;-57
2022/08/17 10:52:01;;;;;;;27.83;24.85;;;24.30;99.90;;;;;;5075090;28;20040;-57
2022/08/17 10:54:39;;;;;;;25.75;22.73;;;24.40;99.90;;;;;;5074987;28;20032;-56
2022/08/17 10:57:32;;;;;;;25.75;23.23;;;24.40;99.90;;;;;;5074758;28;20076;-55
2022/08/17 11:00:15;;;;;;;24.05;21.65;;;24.50;99.90;;;;;;5074863;28;20037;-57
2022/08/17 11:02:49;;;;;;;23.80;21.70;;;24.60;99.90;;;;;;5074838;28;20056;-57
2022/08/17 11:05:21;;;;;;;22.45;20.10;;;24.60;99.90;;;;;;5074699;28;20123;-58
2022/08/17 11:08:25;;;;;;;22.88;20.42;;;24.60;99.90;;;;;;5074778;28;20076;-57
2022/08/17 11:10:56;;;;;;;23.67;21.30;;;24.70;99.90;;;;;;5074335;28;20483;-57
2022/08/17 11:13:29;;;;;;;23.75;19.73;;;24.80;99.90;;;;;;5074601;28;20045;-55
2022/08/17 11:16:16;;;;;;;21.38;19.23;;;25.30;99.90;;;;;;5074618;28;20044;-57
2022/08/17 11:18:56;;;;;;;23.45;19.00;;;25.60;99.90;;;;;;5074384;28;20041;-56
2022/08/17 11:21:50;;;;;;;22.45;20.23;;;26.00;99.90;;;;;;5073459;28;20112;-56
2022/08/17 11:24:38;;;;;;;18.27;16.42;;;25.70;99.90;;;;;;5074475;28;20103;-57
2022/08/17 11:27:12;;;;;;;16.50;14.63;;;25.80;99.90;;;;;;5074376;28;20045;-56
2022/08/17 11:29:46;;;;;;;26.25;18.45;;;25.80;99.90;;;;;;5074242;28;20041;-57
2022/08/17 11:32:35;;;;;;;19.75;17.60;;;25.60;99.90;;;;;;5074217;28;20040;-56
2022/08/17 11:35:12;;;;;;;19.25;14.88;;;25.60;99.90;;;;;;5074382;28;20032;-57
2022/08/17 11:37:45;;;;;;;14.18;12.65;;;25.70;99.90;;;;;;5074126;28;20037;-57
2022/08/17 11:40:32;;;;;;;15.07;13.38;;;25.80;99.90;;;;;;5073944;28;20483;-55
2022/08/17 11:43:23;;;;;;;13.98;11.75;;;25.90;99.90;;;;;;5073970;28;20474;-56
2022/08/17 11:46:12;;;;;;;16.13;11.27;;;25.90;99.90;;;;;;5073967;28;20055;-55
2022/08/17 11:51:59;;;;;;;11.45;9.63;;;26.40;99.90;;;;;;5074083;28;20041;-57
2022/08/17 11:54:29;;;;;;;10.50;9.40;;;26.20;99.90;;;;;;5073916;28;20068;-56
2022/08/17 11:57:16;;;;;;;12.32;9.75;;;26.50;99.90;;;;;;5073873;28;20119;-56
2022/08/17 11:59:44;;;;;;;14.40;9.25;;;26.50;99.90;;;;;;5073741;28;20072;-56
2022/08/17 12:02:20;;;;;;;;;;;26.20;99.90;;;;;;5074202;28;20490;-56
2022/08/17 12:05:11;;;;;;;10.82;9.48;;;25.90;99.90;;;;;;5072536;28;20321;-56
2022/08/17 12:07:41;;;;;;;9.98;8.93;;;26.00;99.90;;;;;;5073514;28;20089;-57
2022/08/17 12:10:07;;;;;;;10.55;8.57;;;26.00;99.90;;;;;;5073680;28;20041;-56
2022/08/17 12:12:34;;;;;;;11.27;9.93;;;26.20;99.90;;;;;;5073968;28;20040;-56
2022/08/17 12:15:03;;;;;;;9.05;7.85;;;26.10;99.90;;;;;;5073482;28;20051;-57
2022/08/17 12:17:31;;;;;;;13.40;9.02;;;26.10;99.90;;;;;;5073711;28;20037;-56
2022/08/17 12:20:32;;;;;;;10.03;9.03;;;26.20;99.90;;;;;;5073749;28;20070;-56
2022/08/17 12:23:22;;;;;;;9.45;8.20;;;26.20;99.90;;;;;;5073674;28;20285;-57
2022/08/17 12:26:07;;;;;;;10.88;8.93;;;26.10;99.90;;;;;;5073611;28;20108;-57
2022/08/17 12:28:35;;;;;;;9.32;8.20;;;26.00;99.90;;;;;;5073679;28;20085;-57
2022/08/17 12:31:21;;;;;;;;;;;26.00;99.90;;;;;;5073757;28;20049;-56
2022/08/17 12:33:50;;;;;;;10.77;8.95;;;26.00;99.90;;;;;;5073989;28;19920;-57
2022/08/17 12:36:23;;;;;;;11.57;7.95;;;25.90;99.90;;;;;;5077637;28;20383;-56
2022/08/17 12:39:05;;;;;;;10.18;8.35;;;26.10;99.90;;;;;;5077621;28;20040;-56
2022/08/17 12:41:40;;;;;;;12.18;8.18;;;26.10;99.90;;;;;;5077458;28;20537;-56
2022/08/17 12:44:21;;;;;;;14.85;9.48;;;26.30;99.90;;;;;;5077459;28;20048;-56
2022/08/17 12:47:13;;;;;;;17.83;11.68;;;26.20;99.90;;;;;;5077538;28;20047;-55
2022/08/17 12:49:45;;;;;;;12.70;11.23;;;25.80;99.90;;;;;;5077244;28;20181;-55
2022/08/17 12:52:16;;;;;;;12.07;9.60;;;25.80;99.90;;;;;;5077200;28;20563;-56
2022/08/17 12:54:53;;;;;;;12.82;10.70;;;25.80;99.90;;;;;;5077215;28;20510;-57
2022/08/17 12:57:37;;;;;;;12.98;11.10;;;25.80;99.90;;;;;;5077160;28;20403;-57
2022/08/17 13:00:24;;;;;;;15.57;11.25;;;25.80;99.90;;;;;;5077174;28;20041;-57
2022/08/17 13:03:07;;;;;;;16.08;11.00;;;25.50;99.90;;;;;;5077136;28;20487;-56
2022/08/17 13:05:58;;;;;;;15.60;9.70;;;25.60;99.90;;;;;;5076838;28;20483;-57
2022/08/17 13:08:31;;;;;;;11.02;9.23;;;25.70;99.90;;;;;;5076916;28;20076;-56
2022/08/17 13:11:15;;;;;;;8.88;7.95;;;25.70;99.90;;;;;;5076875;28;20127;-56
2022/08/17 13:13:43;;;;;;;12.95;9.38;;;25.60;99.90;;;;;;5076843;28;20052;-56
2022/08/17 13:16:13;;;;;;;13.25;8.55;;;25.40;99.90;;;;;;5076837;28;20037;-56
2022/08/17 13:19:11;;;;;;;10.25;8.10;;;25.40;99.90;;;;;;5077025;28;20048;-56
2022/08/17 13:21:44;;;;;;;13.57;10.65;;;25.40;99.90;;;;;;5076784;28;20387;-56
2022/08/17 13:24:10;;;;;;;11.40;9.35;;;25.20;99.90;;;;;;5076796;28;20040;-57
2022/08/17 13:26:44;;;;;;;15.82;11.68;;;25.00;99.90;;;;;;5076503;28;20506;-57
2022/08/17 13:29:26;;;;;;;12.10;9.52;;;24.70;99.90;;;;;;5076690;28;20086;-57